sensor_id;sensor_type;location;lat;lon;timestamp;P1;durP1;ratioP1;P2;durP2;ratioP2
37937;SDS011;23763;48.130;11.602;2022-12-07T00:00:54;15.40;;;12.57;;
37937;SDS011;23763;48.130;11.602;2022-12-07T00:03:20;13.83;;;12.43;;
37937;SDS011;23763;48.130;11.602;2022-12-07T00:05:46;14.23;;;12.73;;
37937;SDS011;23763;48.130;11.602;2022-12-07T00:08:11;14.07;;;12.77;;
37937;SDS011;23763;48.130;11.602;2022-12-07T00:10:37;13.60;;;12.27;;
37937;SDS011;23763;48.130;11.602;2022-12-07T00:13:02;12.43;;;11.43;;
37937;SDS011;23763;48.130;11.602;2022-12-07T00:15:28;12.93;;;11.57;;
37937;SDS011;23763;48.130;11.602;2022-12-07T00:17:54;13.80;;;12.47;;
37937;SDS011;23763;48.130;11.602;2022-12-07T00:20:19;12.47;;;11.27;;
37937;SDS011;23763;48.130;11.602;2022-12-07T00:22:45;12.27;;;11.23;;
37937;SDS011;23763;48.130;11.602;2022-12-07T00:25:10;12.27;;;11.20;;
37937;SDS011;23763;48.130;11.602;2022-12-07T00:27:36;12.10;;;11.00;;
37937;SDS011;23763;48.130;11.602;2022-12-07T00:30:01;12.13;;;10.93;;
37937;SDS011;23763;48.130;11.602;2022-12-07T00:32:27;12.10;;;10.90;;
37937;SDS011;23763;48.130;11.602;2022-12-07T00:34:53;12.70;;;11.43;;
37937;SDS011;23763;48.130;11.602;2022-12-07T00:37:19;12.50;;;11.40;;
37937;SDS011;23763;48.130;11.602;2022-12-07T00:39:45;11.97;;;10.77;;
37937;SDS011;23763;48.130;11.602;2022-12-07T00:42:11;12.30;;;11.10;;
37937;SDS011;23763;48.130;11.602;2022-12-07T00:44:36;13.23;;;11.00;;
37937;SDS011;23763;48.130;11.602;2022-12-07T00:47:02;12.50;;;11.23;;
37937;SDS011;23763;48.130;11.602;2022-12-07T00:49:28;12.40;;;11.13;;
37937;SDS011;23763;48.130;11.602;2022-12-07T00:51:53;13.20;;;12.00;;
37937;SDS011;23763;48.130;11.602;2022-12-07T00:54:19;12.63;;;11.43;;
37937;SDS011;23763;48.130;11.602;2022-12-07T00:56:44;12.67;;;11.57;;
37937;SDS011;23763;48.130;11.602;2022-12-07T00:59:11;12.33;;;11.13;;
37937;SDS011;23763;48.130;11.602;2022-12-07T01:01:41;12.40;;;11.40;;
37937;SDS011;23763;48.130;11.602;2022-12-07T01:04:06;13.13;;;11.83;;
37937;SDS011;23763;48.130;11.602;2022-12-07T01:06:32;12.30;;;11.00;;
37937;SDS011;23763;48.130;11.602;2022-12-07T01:08:58;12.83;;;11.57;;
37937;SDS011;23763;48.130;11.602;2022-12-07T01:11:25;12.60;;;10.97;;
37937;SDS011;23763;48.130;11.602;2022-12-07T01:13:53;12.10;;;11.00;;
37937;SDS011;23763;48.130;11.602;2022-12-07T01:16:20;11.37;;;10.47;;
37937;SDS011;23763;48.130;11.602;2022-12-07T01:18:48;12.63;;;11.53;;
37937;SDS011;23763;48.130;11.602;2022-12-07T01:21:19;11.77;;;10.70;;
37937;SDS011;23763;48.130;11.602;2022-12-07T01:23:50;11.50;;;10.60;;
37937;SDS011;23763;48.130;11.602;2022-12-07T01:26:17;13.17;;;12.03;;
37937;SDS011;23763;48.130;11.602;2022-12-07T01:28:44;14.87;;;13.33;;
37937;SDS011;23763;48.130;11.602;2022-12-07T01:31:12;12.50;;;11.30;;
37937;SDS011;23763;48.130;11.602;2022-12-07T01:33:46;11.47;;;10.57;;
37937;SDS011;23763;48.130;11.602;2022-12-07T01:38:55;11.17;;;10.23;;
37937;SDS011;23763;48.130;11.602;2022-12-07T01:41:27;11.23;;;10.13;;
37937;SDS011;23763;48.130;11.602;2022-12-07T01:46:38;12.07;;;10.97;;
37937;SDS011;23763;48.130;11.602;2022-12-07T01:49:05;11.63;;;10.60;;
37937;SDS011;23763;48.130;11.602;2022-12-07T01:51:34;11.70;;;10.73;;
37937;SDS011;23763;48.130;11.602;2022-12-07T01:54:03;10.97;;;10.07;;
37937;SDS011;23763;48.130;11.602;2022-12-07T01:56:29;10.47;;;9.67;;
37937;SDS011;23763;48.130;11.602;2022-12-07T01:58:55;11.90;;;10.83;;
37937;SDS011;23763;48.130;11.602;2022-12-07T02:01:23;12.13;;;11.03;;
37937;SDS011;23763;48.130;11.602;2022-12-07T02:03:49;11.70;;;10.60;;
37937;SDS011;23763;48.130;11.602;2022-12-07T02:06:16;12.07;;;10.97;;
37937;SDS011;23763;48.130;11.602;2022-12-07T02:08:46;12.17;;;11.17;;
37937;SDS011;23763;48.130;11.602;2022-12-07T02:11:12;11.10;;;10.10;;
37937;SDS011;23763;48.130;11.602;2022-12-07T02:13:38;11.47;;;10.43;;
37937;SDS011;23763;48.130;11.602;2022-12-07T02:18:58;11.37;;;10.37;;
37937;SDS011;23763;48.130;11.602;2022-12-07T02:21:48;12.40;;;11.20;;
37937;SDS011;23763;48.130;11.602;2022-12-07T02:35:24;11.87;;;10.80;;
37937;SDS011;23763;48.130;11.602;2022-12-07T02:43:13;11.33;;;10.33;;
37937;SDS011;23763;48.130;11.602;2022-12-07T02:45:46;11.10;;;10.27;;
37937;SDS011;23763;48.130;11.602;2022-12-07T02:48:16;11.53;;;10.53;;
37937;SDS011;23763;48.130;11.602;2022-12-07T02:50:50;11.50;;;10.47;;
37937;SDS011;23763;48.130;11.602;2022-12-07T02:53:38;11.70;;;10.60;;
37937;SDS011;23763;48.130;11.602;2022-12-07T03:01:47;11.40;;;10.40;;
37937;SDS011;23763;48.130;11.602;2022-12-07T03:04:44;11.90;;;10.90;;
37937;SDS011;23763;48.130;11.602;2022-12-07T03:13:03;12.40;;;11.27;;
37937;SDS011;23763;48.130;11.602;2022-12-07T03:15:34;12.30;;;11.10;;
37937;SDS011;23763;48.130;11.602;2022-12-07T03:18:17;11.13;;;10.23;;
37937;SDS011;23763;48.130;11.602;2022-12-07T03:20:46;12.27;;;11.17;;
37937;SDS011;23763;48.130;11.602;2022-12-07T03:23:16;12.23;;;11.23;;
37937;SDS011;23763;48.130;11.602;2022-12-07T03:25:45;12.87;;;11.53;;
37937;SDS011;23763;48.130;11.602;2022-12-07T03:28:14;11.67;;;10.73;;
37937;SDS011;23763;48.130;11.602;2022-12-07T03:30:45;12.60;;;10.90;;
37937;SDS011;23763;48.130;11.602;2022-12-07T03:33:20;12.37;;;11.27;;
37937;SDS011;23763;48.130;11.602;2022-12-07T03:35:59;12.07;;;11.07;;
37937;SDS011;23763;48.130;11.602;2022-12-07T03:38:33;12.13;;;11.03;;
37937;SDS011;23763;48.130;11.602;2022-12-07T03:41:30;12.37;;;11.17;;
37937;SDS011;23763;48.130;11.602;2022-12-07T03:43:57;11.57;;;10.47;;
37937;SDS011;23763;48.130;11.602;2022-12-07T03:46:42;12.83;;;11.73;;
37937;SDS011;23763;48.130;11.602;2022-12-07T03:49:20;13.13;;;11.87;;
37937;SDS011;23763;48.130;11.602;2022-12-07T03:51:58;12.60;;;11.43;;
37937;SDS011;23763;48.130;11.602;2022-12-07T03:54:56;11.60;;;10.60;;
37937;SDS011;23763;48.130;11.602;2022-12-07T03:57:31;12.20;;;11.20;;
37937;SDS011;23763;48.130;11.602;2022-12-07T03:59:59;13.17;;;11.87;;
37937;SDS011;23763;48.130;11.602;2022-12-07T04:02:27;12.70;;;11.50;;
37937;SDS011;23763;48.130;11.602;2022-12-07T04:04:54;13.20;;;12.00;;
37937;SDS011;23763;48.130;11.602;2022-12-07T04:07:20;13.47;;;12.27;;
37937;SDS011;23763;48.130;11.602;2022-12-07T04:09:46;13.60;;;12.40;;
37937;SDS011;23763;48.130;11.602;2022-12-07T04:12:11;13.73;;;12.43;;
37937;SDS011;23763;48.130;11.602;2022-12-07T04:14:37;13.90;;;12.57;;
37937;SDS011;23763;48.130;11.602;2022-12-07T04:17:03;13.40;;;12.10;;
37937;SDS011;23763;48.130;11.602;2022-12-07T04:19:29;13.50;;;12.20;;
37937;SDS011;23763;48.130;11.602;2022-12-07T04:21:56;13.63;;;12.03;;
37937;SDS011;23763;48.130;11.602;2022-12-07T04:24:23;13.63;;;12.30;;
37937;SDS011;23763;48.130;11.602;2022-12-07T04:26:49;13.33;;;12.10;;
37937;SDS011;23763;48.130;11.602;2022-12-07T04:29:14;13.13;;;11.93;;
37937;SDS011;23763;48.130;11.602;2022-12-07T04:31:41;13.50;;;12.23;;
37937;SDS011;23763;48.130;11.602;2022-12-07T04:34:07;12.80;;;11.60;;
37937;SDS011;23763;48.130;11.602;2022-12-07T04:36:33;12.30;;;11.20;;
37937;SDS011;23763;48.130;11.602;2022-12-07T04:38:59;12.17;;;11.07;;
37937;SDS011;23763;48.130;11.602;2022-12-07T04:41:26;12.90;;;11.70;;
37937;SDS011;23763;48.130;11.602;2022-12-07T04:44:01;12.83;;;11.70;;
37937;SDS011;23763;48.130;11.602;2022-12-07T04:46:29;13.10;;;11.90;;
37937;SDS011;23763;48.130;11.602;2022-12-07T04:48:56;12.67;;;11.47;;
37937;SDS011;23763;48.130;11.602;2022-12-07T04:51:24;13.20;;;11.90;;
37937;SDS011;23763;48.130;11.602;2022-12-07T04:53:51;12.73;;;11.60;;
37937;SDS011;23763;48.130;11.602;2022-12-07T04:56:17;12.30;;;11.10;;
37937;SDS011;23763;48.130;11.602;2022-12-07T04:58:44;12.37;;;11.23;;
37937;SDS011;23763;48.130;11.602;2022-12-07T05:01:10;13.57;;;12.10;;
37937;SDS011;23763;48.130;11.602;2022-12-07T05:03:36;13.10;;;11.90;;
37937;SDS011;23763;48.130;11.602;2022-12-07T05:06:03;13.43;;;12.03;;
37937;SDS011;23763;48.130;11.602;2022-12-07T05:08:29;12.20;;;11.13;;
37937;SDS011;23763;48.130;11.602;2022-12-07T05:10:55;12.63;;;11.43;;
37937;SDS011;23763;48.130;11.602;2022-12-07T05:13:20;13.27;;;11.97;;
37937;SDS011;23763;48.130;11.602;2022-12-07T05:15:46;12.57;;;11.37;;
37937;SDS011;23763;48.130;11.602;2022-12-07T05:18:13;12.77;;;11.57;;
37937;SDS011;23763;48.130;11.602;2022-12-07T05:20:39;12.33;;;11.23;;
37937;SDS011;23763;48.130;11.602;2022-12-07T05:23:05;14.13;;;12.53;;
37937;SDS011;23763;48.130;11.602;2022-12-07T05:25:30;13.33;;;12.23;;
37937;SDS011;23763;48.130;11.602;2022-12-07T05:27:56;13.40;;;12.00;;
37937;SDS011;23763;48.130;11.602;2022-12-07T05:30:22;12.73;;;11.63;;
37937;SDS011;23763;48.130;11.602;2022-12-07T05:32:48;13.33;;;12.07;;
37937;SDS011;23763;48.130;11.602;2022-12-07T05:35:14;12.33;;;11.23;;
37937;SDS011;23763;48.130;11.602;2022-12-07T05:37:40;12.87;;;11.67;;
37937;SDS011;23763;48.130;11.602;2022-12-07T05:40:05;12.27;;;11.17;;
37937;SDS011;23763;48.130;11.602;2022-12-07T05:42:32;12.27;;;11.13;;
37937;SDS011;23763;48.130;11.602;2022-12-07T05:44:57;11.80;;;10.83;;
37937;SDS011;23763;48.130;11.602;2022-12-07T05:47:23;12.43;;;11.17;;
37937;SDS011;23763;48.130;11.602;2022-12-07T05:49:49;13.10;;;11.80;;
37937;SDS011;23763;48.130;11.602;2022-12-07T05:52:15;11.53;;;10.53;;
37937;SDS011;23763;48.130;11.602;2022-12-07T05:54:40;12.10;;;11.00;;
37937;SDS011;23763;48.130;11.602;2022-12-07T05:57:06;12.03;;;11.03;;
37937;SDS011;23763;48.130;11.602;2022-12-07T05:59:31;12.13;;;11.03;;
37937;SDS011;23763;48.130;11.602;2022-12-07T06:02:08;13.93;;;12.73;;
37937;SDS011;23763;48.130;11.602;2022-12-07T06:04:39;12.87;;;11.63;;
37937;SDS011;23763;48.130;11.602;2022-12-07T06:07:07;13.67;;;12.40;;
37937;SDS011;23763;48.130;11.602;2022-12-07T06:09:33;12.77;;;11.63;;
37937;SDS011;23763;48.130;11.602;2022-12-07T06:11:59;13.17;;;11.97;;
37937;SDS011;23763;48.130;11.602;2022-12-07T06:14:44;12.33;;;11.23;;
37937;SDS011;23763;48.130;11.602;2022-12-07T06:17:10;14.47;;;13.17;;
37937;SDS011;23763;48.130;11.602;2022-12-07T06:19:37;13.73;;;12.43;;
37937;SDS011;23763;48.130;11.602;2022-12-07T06:22:03;14.70;;;13.20;;
37937;SDS011;23763;48.130;11.602;2022-12-07T06:24:30;13.77;;;12.57;;
37937;SDS011;23763;48.130;11.602;2022-12-07T06:26:56;14.57;;;13.20;;
37937;SDS011;23763;48.130;11.602;2022-12-07T06:29:21;14.03;;;12.83;;
37937;SDS011;23763;48.130;11.602;2022-12-07T06:31:47;14.73;;;13.43;;
37937;SDS011;23763;48.130;11.602;2022-12-07T06:34:14;13.40;;;12.20;;
37937;SDS011;23763;48.130;11.602;2022-12-07T06:36:41;14.33;;;13.03;;
37937;SDS011;23763;48.130;11.602;2022-12-07T06:39:07;14.00;;;12.70;;
37937;SDS011;23763;48.130;11.602;2022-12-07T06:41:34;14.60;;;13.40;;
37937;SDS011;23763;48.130;11.602;2022-12-07T06:44:04;12.77;;;11.57;;
37937;SDS011;23763;48.130;11.602;2022-12-07T06:46:30;14.07;;;12.80;;
37937;SDS011;23763;48.130;11.602;2022-12-07T06:48:56;14.50;;;13.20;;
37937;SDS011;23763;48.130;11.602;2022-12-07T06:51:22;14.80;;;13.50;;
37937;SDS011;23763;48.130;11.602;2022-12-07T06:53:48;13.57;;;12.33;;
37937;SDS011;23763;48.130;11.602;2022-12-07T06:56:13;14.40;;;13.10;;
37937;SDS011;23763;48.130;11.602;2022-12-07T06:58:39;14.73;;;13.33;;
37937;SDS011;23763;48.130;11.602;2022-12-07T07:01:12;14.83;;;13.53;;
37937;SDS011;23763;48.130;11.602;2022-12-07T07:03:39;14.33;;;13.00;;
37937;SDS011;23763;48.130;11.602;2022-12-07T07:06:05;15.00;;;13.57;;
37937;SDS011;23763;48.130;11.602;2022-12-07T07:08:32;13.67;;;12.37;;
37937;SDS011;23763;48.130;11.602;2022-12-07T07:10:58;15.00;;;13.50;;
37937;SDS011;23763;48.130;11.602;2022-12-07T07:13:24;14.17;;;12.77;;
37937;SDS011;23763;48.130;11.602;2022-12-07T07:15:50;14.30;;;13.00;;
37937;SDS011;23763;48.130;11.602;2022-12-07T07:18:15;13.90;;;12.60;;
37937;SDS011;23763;48.130;11.602;2022-12-07T07:20:41;14.83;;;13.43;;
37937;SDS011;23763;48.130;11.602;2022-12-07T07:23:06;14.43;;;13.03;;
37937;SDS011;23763;48.130;11.602;2022-12-07T07:25:32;13.00;;;11.90;;
37937;SDS011;23763;48.130;11.602;2022-12-07T07:27:58;13.90;;;12.67;;
37937;SDS011;23763;48.130;11.602;2022-12-07T07:30:24;13.70;;;12.50;;
37937;SDS011;23763;48.130;11.602;2022-12-07T07:32:50;14.30;;;12.87;;
37937;SDS011;23763;48.130;11.602;2022-12-07T07:35:15;14.57;;;13.00;;
37937;SDS011;23763;48.130;11.602;2022-12-07T07:37:41;13.90;;;12.70;;
37937;SDS011;23763;48.130;11.602;2022-12-07T07:40:07;13.20;;;12.10;;
37937;SDS011;23763;48.130;11.602;2022-12-07T07:42:34;14.57;;;13.17;;
37937;SDS011;23763;48.130;11.602;2022-12-07T07:44:59;15.00;;;13.53;;
37937;SDS011;23763;48.130;11.602;2022-12-07T07:47:25;14.43;;;13.17;;
37937;SDS011;23763;48.130;11.602;2022-12-07T07:49:50;14.20;;;12.90;;
37937;SDS011;23763;48.130;11.602;2022-12-07T07:52:16;14.97;;;13.43;;
37937;SDS011;23763;48.130;11.602;2022-12-07T07:54:42;13.90;;;12.70;;
37937;SDS011;23763;48.130;11.602;2022-12-07T07:57:07;14.17;;;12.87;;
37937;SDS011;23763;48.130;11.602;2022-12-07T07:59:33;14.17;;;12.97;;
37937;SDS011;23763;48.130;11.602;2022-12-07T08:01:58;15.00;;;13.50;;
37937;SDS011;23763;48.130;11.602;2022-12-07T08:04:24;14.67;;;13.37;;
37937;SDS011;23763;48.130;11.602;2022-12-07T08:06:49;14.63;;;13.07;;
37937;SDS011;23763;48.130;11.602;2022-12-07T08:09:15;14.50;;;13.10;;
37937;SDS011;23763;48.130;11.602;2022-12-07T08:11:40;15.50;;;14.07;;
37937;SDS011;23763;48.130;11.602;2022-12-07T08:14:06;14.60;;;13.20;;
37937;SDS011;23763;48.130;11.602;2022-12-07T08:16:31;14.33;;;13.00;;
37937;SDS011;23763;48.130;11.602;2022-12-07T08:18:57;15.77;;;14.17;;
37937;SDS011;23763;48.130;11.602;2022-12-07T08:21:23;14.63;;;13.13;;
37937;SDS011;23763;48.130;11.602;2022-12-07T08:23:49;14.87;;;13.37;;
37937;SDS011;23763;48.130;11.602;2022-12-07T08:26:15;14.53;;;13.03;;
37937;SDS011;23763;48.130;11.602;2022-12-07T08:28:41;15.23;;;13.87;;
37937;SDS011;23763;48.130;11.602;2022-12-07T08:31:12;15.30;;;13.80;;
37937;SDS011;23763;48.130;11.602;2022-12-07T08:33:40;15.87;;;13.97;;
37937;SDS011;23763;48.130;11.602;2022-12-07T08:36:07;15.40;;;13.90;;
37937;SDS011;23763;48.130;11.602;2022-12-07T08:38:36;16.07;;;14.40;;
37937;SDS011;23763;48.130;11.602;2022-12-07T08:41:04;15.63;;;14.07;;
37937;SDS011;23763;48.130;11.602;2022-12-07T08:43:30;15.50;;;14.10;;
37937;SDS011;23763;48.130;11.602;2022-12-07T08:46:43;15.43;;;13.87;;
37937;SDS011;23763;48.130;11.602;2022-12-07T08:49:04;15.70;;;14.00;;
37937;SDS011;23763;48.130;11.602;2022-12-07T08:51:57;15.30;;;13.80;;
37937;SDS011;23763;48.130;11.602;2022-12-07T08:54:23;25.40;;;21.07;;
37937;SDS011;23763;48.130;11.602;2022-12-07T08:56:49;15.90;;;14.30;;
37937;SDS011;23763;48.130;11.602;2022-12-07T08:59:16;16.07;;;14.47;;
37937;SDS011;23763;48.130;11.602;2022-12-07T09:01:44;15.83;;;14.17;;
37937;SDS011;23763;48.130;11.602;2022-12-07T09:04:09;15.97;;;14.37;;
37937;SDS011;23763;48.130;11.602;2022-12-07T09:06:36;16.13;;;14.53;;
37937;SDS011;23763;48.130;11.602;2022-12-07T09:09:02;15.00;;;13.40;;
37937;SDS011;23763;48.130;11.602;2022-12-07T09:11:28;15.97;;;14.37;;
37937;SDS011;23763;48.130;11.602;2022-12-07T09:13:55;16.03;;;14.43;;
37937;SDS011;23763;48.130;11.602;2022-12-07T09:16:21;17.10;;;15.40;;
37937;SDS011;23763;48.130;11.602;2022-12-07T09:18:46;15.10;;;13.70;;
37937;SDS011;23763;48.130;11.602;2022-12-07T09:21:12;14.37;;;13.07;;
37937;SDS011;23763;48.130;11.602;2022-12-07T09:23:37;15.80;;;14.07;;
37937;SDS011;23763;48.130;11.602;2022-12-07T09:26:03;14.80;;;13.50;;
37937;SDS011;23763;48.130;11.602;2022-12-07T09:28:32;16.77;;;14.40;;
37937;SDS011;23763;48.130;11.602;2022-12-07T09:30:58;13.80;;;12.63;;
37937;SDS011;23763;48.130;11.602;2022-12-07T09:33:24;14.87;;;13.40;;
37937;SDS011;23763;48.130;11.602;2022-12-07T09:35:50;15.47;;;13.93;;
37937;SDS011;23763;48.130;11.602;2022-12-07T09:38:17;34.40;;;22.77;;
37937;SDS011;23763;48.130;11.602;2022-12-07T09:40:43;25.43;;;18.93;;
37937;SDS011;23763;48.130;11.602;2022-12-07T09:43:17;17.20;;;15.37;;
37937;SDS011;23763;48.130;11.602;2022-12-07T09:45:45;15.07;;;13.43;;
37937;SDS011;23763;48.130;11.602;2022-12-07T09:48:20;30.70;;;20.80;;
37937;SDS011;23763;48.130;11.602;2022-12-07T09:51:15;16.83;;;13.90;;
37937;SDS011;23763;48.130;11.602;2022-12-07T09:53:45;13.30;;;12.13;;
37937;SDS011;23763;48.130;11.602;2022-12-07T09:56:15;13.40;;;12.10;;
37937;SDS011;23763;48.130;11.602;2022-12-07T09:58:42;14.73;;;13.23;;
37937;SDS011;23763;48.130;11.602;2022-12-07T10:03:35;13.60;;;12.33;;
37937;SDS011;23763;48.130;11.602;2022-12-07T10:06:03;13.93;;;12.63;;
37937;SDS011;23763;48.130;11.602;2022-12-07T10:08:31;13.67;;;12.37;;
37937;SDS011;23763;48.130;11.602;2022-12-07T10:10:57;15.35;;;13.85;;
37937;SDS011;23763;48.130;11.602;2022-12-07T10:18:47;13.18;;;11.98;;
37937;SDS011;23763;48.130;11.602;2022-12-07T10:21:17;14.63;;;13.23;;
37937;SDS011;23763;48.130;11.602;2022-12-07T10:24:03;13.20;;;11.90;;
37937;SDS011;23763;48.130;11.602;2022-12-07T10:29:17;14.23;;;12.73;;
37937;SDS011;23763;48.130;11.602;2022-12-07T10:35:18;12.63;;;11.32;;
37937;SDS011;23763;48.130;11.602;2022-12-07T10:37:43;12.57;;;11.40;;
37937;SDS011;23763;48.130;11.602;2022-12-07T10:40:52;12.63;;;11.53;;
37937;SDS011;23763;48.130;11.602;2022-12-07T10:43:01;12.02;;;10.93;;
37937;SDS011;23763;48.130;11.602;2022-12-07T10:45:29;12.88;;;11.85;;
37937;SDS011;23763;48.130;11.602;2022-12-07T11:03:46;13.40;;;11.75;;
37937;SDS011;23763;48.130;11.602;2022-12-07T11:06:37;12.40;;;11.27;;
37937;SDS011;23763;48.130;11.602;2022-12-07T11:15:04;12.15;;;10.50;;
37937;SDS011;23763;48.130;11.602;2022-12-07T11:21:09;11.13;;;10.13;;
37937;SDS011;23763;48.130;11.602;2022-12-07T11:26:46;12.03;;;10.93;;
37937;SDS011;23763;48.130;11.602;2022-12-07T11:35:01;12.00;;;10.47;;
37937;SDS011;23763;48.130;11.602;2022-12-07T11:37:49;11.13;;;10.10;;
37937;SDS011;23763;48.130;11.602;2022-12-07T11:45:59;15.05;;;13.48;;
37937;SDS011;23763;48.130;11.602;2022-12-07T11:51:12;11.67;;;10.67;;
37937;SDS011;23763;48.130;11.602;2022-12-07T11:56:15;12.45;;;11.15;;
37937;SDS011;23763;48.130;11.602;2022-12-07T12:03:49;10.50;;;9.50;;
37937;SDS011;23763;48.130;11.602;2022-12-07T12:06:17;10.00;;;9.20;;
37937;SDS011;23763;48.130;11.602;2022-12-07T12:08:46;10.18;;;9.18;;
37937;SDS011;23763;48.130;11.602;2022-12-07T12:22:38;12.02;;;10.75;;
37937;SDS011;23763;48.130;11.602;2022-12-07T12:25:07;10.95;;;9.95;;
37937;SDS011;23763;48.130;11.602;2022-12-07T12:27:50;10.75;;;9.88;;
37937;SDS011;23763;48.130;11.602;2022-12-07T12:30:39;11.88;;;10.70;;
37937;SDS011;23763;48.130;11.602;2022-12-07T12:33:11;13.00;;;10.18;;
37937;SDS011;23763;48.130;11.602;2022-12-07T12:35:45;11.48;;;10.38;;
37937;SDS011;23763;48.130;11.602;2022-12-07T12:38:31;10.57;;;9.68;;
37937;SDS011;23763;48.130;11.602;2022-12-07T12:40:58;10.30;;;9.40;;
37937;SDS011;23763;48.130;11.602;2022-12-07T12:48:56;10.75;;;9.75;;
37937;SDS011;23763;48.130;11.602;2022-12-07T12:51:49;10.75;;;9.85;;
37937;SDS011;23763;48.130;11.602;2022-12-07T12:54:26;12.93;;;10.43;;
37937;SDS011;23763;48.130;11.602;2022-12-07T13:12:56;12.60;;;11.52;;
37937;SDS011;23763;48.130;11.602;2022-12-07T13:15:34;27.98;;;20.30;;
37937;SDS011;23763;48.130;11.602;2022-12-07T13:20:57;13.07;;;11.77;;
37937;SDS011;23763;48.130;11.602;2022-12-07T13:31:35;13.60;;;12.20;;
37937;SDS011;23763;48.130;11.602;2022-12-07T13:34:38;12.02;;;10.93;;
37937;SDS011;23763;48.130;11.602;2022-12-07T13:37:13;11.95;;;10.93;;
37937;SDS011;23763;48.130;11.602;2022-12-07T13:39:50;12.88;;;11.10;;
37937;SDS011;23763;48.130;11.602;2022-12-07T13:44:54;11.88;;;10.77;;
37937;SDS011;23763;48.130;11.602;2022-12-07T13:47:31;11.55;;;10.57;;
37937;SDS011;23763;48.130;11.602;2022-12-07T13:53:07;13.82;;;10.63;;
37937;SDS011;23763;48.130;11.602;2022-12-07T13:55:38;12.30;;;10.75;;
37937;SDS011;23763;48.130;11.602;2022-12-07T13:58:10;11.93;;;10.85;;
37937;SDS011;23763;48.130;11.602;2022-12-07T14:00:40;12.25;;;11.13;;
37937;SDS011;23763;48.130;11.602;2022-12-07T14:05:39;15.13;;;12.73;;
37937;SDS011;23763;48.130;11.602;2022-12-07T14:10:42;11.68;;;10.48;;
37937;SDS011;23763;48.130;11.602;2022-12-07T14:16:01;11.93;;;10.75;;
37937;SDS011;23763;48.130;11.602;2022-12-07T14:18:30;12.00;;;10.33;;
37937;SDS011;23763;48.130;11.602;2022-12-07T14:21:06;11.90;;;10.55;;
37937;SDS011;23763;48.130;11.602;2022-12-07T14:23:35;11.15;;;10.07;;
37937;SDS011;23763;48.130;11.602;2022-12-07T14:26:11;11.93;;;10.70;;
37937;SDS011;23763;48.130;11.602;2022-12-07T14:28:39;11.73;;;10.23;;
37937;SDS011;23763;48.130;11.602;2022-12-07T14:31:10;12.40;;;11.10;;
37937;SDS011;23763;48.130;11.602;2022-12-07T14:33:37;11.35;;;10.35;;
37937;SDS011;23763;48.130;11.602;2022-12-07T14:36:03;11.63;;;10.47;;
37937;SDS011;23763;48.130;11.602;2022-12-07T14:38:29;11.05;;;10.15;;
37937;SDS011;23763;48.130;11.602;2022-12-07T14:40:55;16.87;;;10.40;;
37937;SDS011;23763;48.130;11.602;2022-12-07T14:43:41;9.85;;;8.95;;
37937;SDS011;23763;48.130;11.602;2022-12-07T14:46:08;10.93;;;9.88;;
37937;SDS011;23763;48.130;11.602;2022-12-07T14:48:34;11.10;;;10.00;;
37937;SDS011;23763;48.130;11.602;2022-12-07T14:50:59;13.25;;;11.10;;
37937;SDS011;23763;48.130;11.602;2022-12-07T14:53:28;11.87;;;10.47;;
37937;SDS011;23763;48.130;11.602;2022-12-07T14:55:56;11.23;;;10.13;;
37937;SDS011;23763;48.130;11.602;2022-12-07T14:58:22;11.33;;;10.23;;
37937;SDS011;23763;48.130;11.602;2022-12-07T15:00:47;11.47;;;10.40;;
37937;SDS011;23763;48.130;11.602;2022-12-07T15:03:13;11.40;;;10.32;;
37937;SDS011;23763;48.130;11.602;2022-12-07T15:05:39;11.30;;;10.30;;
37937;SDS011;23763;48.130;11.602;2022-12-07T15:08:06;11.73;;;10.63;;
37937;SDS011;23763;48.130;11.602;2022-12-07T15:10:33;11.83;;;10.47;;
37937;SDS011;23763;48.130;11.602;2022-12-07T15:13:00;10.87;;;9.83;;
37937;SDS011;23763;48.130;11.602;2022-12-07T15:15:46;12.07;;;10.50;;
37937;SDS011;23763;48.130;11.602;2022-12-07T15:18:12;12.00;;;10.60;;
37937;SDS011;23763;48.130;11.602;2022-12-07T15:20:38;12.57;;;10.87;;
37937;SDS011;23763;48.130;11.602;2022-12-07T15:23:04;12.33;;;11.23;;
37937;SDS011;23763;48.130;11.602;2022-12-07T15:25:30;12.53;;;11.53;;
37937;SDS011;23763;48.130;11.602;2022-12-07T15:27:55;11.70;;;10.50;;
37937;SDS011;23763;48.130;11.602;2022-12-07T15:30:21;13.57;;;11.53;;
37937;SDS011;23763;48.130;11.602;2022-12-07T15:32:52;12.50;;;11.30;;
37937;SDS011;23763;48.130;11.602;2022-12-07T15:35:18;12.70;;;11.50;;
37937;SDS011;23763;48.130;11.602;2022-12-07T15:37:44;13.37;;;11.87;;
37937;SDS011;23763;48.130;11.602;2022-12-07T15:40:10;15.03;;;11.93;;
37937;SDS011;23763;48.130;11.602;2022-12-07T15:42:36;13.50;;;12.20;;
37937;SDS011;23763;48.130;11.602;2022-12-07T15:45:03;13.73;;;12.43;;
37937;SDS011;23763;48.130;11.602;2022-12-07T15:47:30;13.93;;;12.53;;
37937;SDS011;23763;48.130;11.602;2022-12-07T15:49:58;14.43;;;12.93;;
37937;SDS011;23763;48.130;11.602;2022-12-07T15:52:24;14.37;;;12.93;;
37937;SDS011;23763;48.130;11.602;2022-12-07T15:54:49;20.27;;;15.63;;
37937;SDS011;23763;48.130;11.602;2022-12-07T15:57:15;14.63;;;13.23;;
37937;SDS011;23763;48.130;11.602;2022-12-07T15:59:41;14.20;;;12.90;;
37937;SDS011;23763;48.130;11.602;2022-12-07T16:02:07;14.10;;;12.77;;
37937;SDS011;23763;48.130;11.602;2022-12-07T16:04:35;16.50;;;14.63;;
37937;SDS011;23763;48.130;11.602;2022-12-07T16:07:01;14.23;;;12.93;;
37937;SDS011;23763;48.130;11.602;2022-12-07T16:09:27;14.57;;;13.20;;
37937;SDS011;23763;48.130;11.602;2022-12-07T16:11:52;15.10;;;13.60;;
37937;SDS011;23763;48.130;11.602;2022-12-07T16:14:18;15.17;;;13.67;;
37937;SDS011;23763;48.130;11.602;2022-12-07T16:16:44;17.80;;;15.13;;
37937;SDS011;23763;48.130;11.602;2022-12-07T16:19:10;15.63;;;13.87;;
37937;SDS011;23763;48.130;11.602;2022-12-07T16:21:36;15.60;;;12.97;;
37937;SDS011;23763;48.130;11.602;2022-12-07T16:24:02;14.67;;;13.17;;
37937;SDS011;23763;48.130;11.602;2022-12-07T16:26:28;16.00;;;13.60;;
37937;SDS011;23763;48.130;11.602;2022-12-07T16:28:54;14.73;;;13.33;;
37937;SDS011;23763;48.130;11.602;2022-12-07T16:31:24;14.00;;;12.63;;
37937;SDS011;23763;48.130;11.602;2022-12-07T16:33:55;15.03;;;13.33;;
37937;SDS011;23763;48.130;11.602;2022-12-07T16:36:22;14.47;;;12.97;;
37937;SDS011;23763;48.130;11.602;2022-12-07T16:38:49;15.20;;;13.60;;
37937;SDS011;23763;48.130;11.602;2022-12-07T16:41:15;19.27;;;14.20;;
37937;SDS011;23763;48.130;11.602;2022-12-07T16:43:40;27.47;;;18.83;;
37937;SDS011;23763;48.130;11.602;2022-12-07T16:46:06;18.73;;;15.03;;
37937;SDS011;23763;48.130;11.602;2022-12-07T16:48:35;16.93;;;14.57;;
37937;SDS011;23763;48.130;11.602;2022-12-07T16:51:03;16.50;;;14.77;;
37937;SDS011;23763;48.130;11.602;2022-12-07T16:53:34;17.47;;;13.90;;
37937;SDS011;23763;48.130;11.602;2022-12-07T16:56:00;16.63;;;14.07;;